Time;durP1;ratioP1;P1;durP2;ratioP2;P2;SDS_P1;SDS_P2;PMS_P1;PMS_P2;Temp;Humidity;BMP_temperature;BMP_pressure;BME280_temperature;BME280_humidity;BME280_pressure;Samples;Min_cycle;Max_cycle;Signal;HPM_P1;HPM_P2
2021/06/06 00:01:23;;;;;;;40.00;36.70;;;21.50;99.90;;;;;;4996597;28;20657;-85
2021/06/06 00:03:53;;;;;;;35.93;33.03;;;21.50;99.90;;;;;;4991850;28;20325;-84
2021/06/06 00:06:21;;;;;;;35.10;32.20;;;21.50;99.90;;;;;;4997874;28;20899;-84
2021/06/06 00:08:47;;;;;;;35.80;32.87;;;21.50;99.90;;;;;;4993488;28;20652;-85
2021/06/06 00:11:14;;;;;;;36.80;33.80;;;21.50;99.90;;;;;;4993328;28;20647;-85
2021/06/06 00:13:41;;;;;;;34.27;31.57;;;21.60;99.90;;;;;;4994436;28;20663;-84
2021/06/06 00:16:14;;;;;;;37.33;34.23;;;21.50;99.90;;;;;;5002193;28;20620;-86
2021/06/06 00:18:40;;;;;;;39.13;35.83;;;21.50;99.90;;;;;;4992566;28;20976;-86
2021/06/06 00:21:06;;;;;;;38.70;35.57;;;21.50;99.90;;;;;;4995210;28;20613;-86
2021/06/06 00:23:32;;;;;;;38.23;35.13;;;21.40;99.90;;;;;;4993287;28;20249;-84
2021/06/06 00:25:59;;;;;;;38.13;34.93;;;21.40;99.90;;;;;;4991968;28;20613;-86
2021/06/06 00:28:25;;;;;;;40.33;37.00;;;21.40;99.90;;;;;;4992917;28;20695;-85
2021/06/06 00:30:51;;;;;;;42.30;38.70;;;21.40;99.90;;;;;;4993774;28;20987;-85
2021/06/06 00:33:16;;;;;;;39.43;36.23;;;21.60;99.90;;;;;;4994139;28;20226;-85
2021/06/06 00:35:42;;;;;;;42.47;38.87;;;21.40;99.90;;;;;;4994376;28;20193;-85
2021/06/06 00:38:07;;;;;;;42.13;38.63;;;21.30;99.90;;;;;;5008756;28;20645;-85
2021/06/06 00:40:36;;;;;;;40.30;36.90;;;21.30;99.90;;;;;;4995160;28;20660;-86
2021/06/06 00:43:03;;;;;;;40.60;37.23;;;21.30;99.90;;;;;;4993751;28;20249;-85
2021/06/06 00:45:31;;;;;;;40.60;37.20;;;21.30;99.90;;;;;;5007037;28;21200;-84
2021/06/06 00:47:57;;;;;;;40.30;37.10;;;21.20;99.90;;;;;;4994365;28;20613;-85
2021/06/06 00:50:30;;;;;;;45.17;41.33;;;21.20;99.90;;;;;;4994333;28;20644;-85
2021/06/06 00:53:00;;;;;;;46.57;42.57;;;21.30;99.90;;;;;;5006418;28;20625;-85
2021/06/06 00:55:27;;;;;;;46.67;42.67;;;21.30;99.90;;;;;;4989869;28;20675;-85
2021/06/06 00:57:54;;;;;;;47.73;43.57;;;21.20;99.90;;;;;;4991421;28;20946;-83
2021/06/06 01:00:23;;;;;;;50.67;46.27;;;21.20;99.90;;;;;;4992790;28;20676;-85
2021/06/06 01:02:50;;;;;;;49.43;45.27;;;21.30;99.90;;;;;;4989986;28;20684;-85
2021/06/06 01:05:45;;;;;;;49.80;45.60;;;21.10;99.90;;;;;;4992872;28;20614;-86
2021/06/06 01:08:13;;;;;;;51.40;47.00;;;21.00;99.90;;;;;;4985087;28;20748;-85
2021/06/06 01:10:40;;;;;;;50.33;45.63;;;21.00;99.90;;;;;;4993919;28;20612;-85
2021/06/06 01:13:16;;;;;;;49.83;45.43;;;21.00;99.90;;;;;;4991633;28;20732;-85
2021/06/06 01:15:46;;;;;;;51.70;47.20;;;21.00;99.90;;;;;;4990461;28;20629;-87
2021/06/06 01:18:26;;;;;;;48.47;44.20;;;21.00;99.90;;;;;;4991366;28;20609;-84
2021/06/06 01:21:19;;;;;;;52.73;48.13;;;21.00;99.90;;;;;;5005862;28;20616;-86
2021/06/06 01:24:02;;;;;;;48.77;44.50;;;21.00;99.90;;;;;;4988160;28;20695;-86
2021/06/06 01:26:36;;;;;;;50.40;46.00;;;21.00;99.90;;;;;;4990892;28;20651;-88
2021/06/06 01:29:33;;;;;;;49.27;44.90;;;21.00;99.90;;;;;;5006102;28;20664;-87
2021/06/06 01:32:20;;;;;;;57.27;52.20;;;21.00;99.90;;;;;;4991739;28;20621;-86
2021/06/06 01:34:53;;;;;;;50.57;46.13;;;21.00;99.90;;;;;;4986591;28;20733;-88
2021/06/06 01:37:21;;;;;;;52.07;47.17;;;20.90;99.90;;;;;;4987066;28;21186;-87
2021/06/06 01:42:40;;;;;;;54.70;49.70;;;20.80;99.90;;;;;;4977541;26;20699;-89
2021/06/06 01:45:17;;;;;;;54.97;49.90;;;20.70;99.90;;;;;;4965207;28;20646;-88
2021/06/06 01:47:45;;;;;;;51.90;47.20;;;20.70;99.90;;;;;;4970101;28;21194;-88
2021/06/06 01:50:22;;;;;;;57.70;52.60;;;20.70;99.90;;;;;;4964554;28;20704;-89
2021/06/06 01:52:50;;;;;;;52.90;48.00;;;20.70;99.90;;;;;;4987787;28;20632;-91
2021/06/06 01:55:22;;;;;;;51.50;46.80;;;20.80;99.90;;;;;;4988721;28;20695;-87
2021/06/06 01:57:51;;;;;;;57.50;52.20;;;20.70;99.90;;;;;;4981321;28;20656;-89
2021/06/06 02:00:29;;;;;;;54.40;49.40;;;20.60;99.90;;;;;;4984207;28;20660;-89
2021/06/06 02:02:55;;;;;;;50.17;45.50;;;20.60;99.90;;;;;;4974876;28;21265;-89
2021/06/06 02:05:21;;;;;;;54.27;49.30;;;20.70;99.90;;;;;;4995403;28;20701;-89
2021/06/06 02:07:49;;;;;;;56.67;51.40;;;20.60;99.90;;;;;;4978462;28;21008;-90
2021/06/06 02:10:47;;;;;;;56.20;50.87;;;20.70;99.90;;;;;;4982272;28;21276;-89
2021/06/06 02:13:40;;;;;;;58.00;52.33;;;20.60;99.90;;;;;;4976574;28;20630;-89
2021/06/06 02:16:07;;;;;;;58.53;52.80;;;20.50;99.90;;;;;;4981522;28;21150;-89
2021/06/06 02:18:33;;;;;;;53.93;48.93;;;20.40;99.90;;;;;;4979666;28;20704;-89
2021/06/06 02:20:59;;;;;;;56.03;50.93;;;20.50;99.90;;;;;;4997906;28;20649;-90
2021/06/06 02:23:29;;;;;;;53.17;48.20;;;20.50;99.90;;;;;;4983033;28;20754;-90
2021/06/06 02:26:02;;;;;;;52.50;47.50;;;20.40;99.90;;;;;;4986376;28;20687;-90
2021/06/06 02:28:42;;;;;;;52.57;47.70;;;20.40;99.90;;;;;;4987527;28;20630;-89
2021/06/06 02:31:19;;;;;;;51.77;47.03;;;20.40;99.90;;;;;;4984162;28;21021;-89
2021/06/06 02:34:16;;;;;;;55.67;50.23;;;20.40;99.90;;;;;;4984364;28;20652;-92
2021/06/06 02:36:50;;;;;;;50.30;45.57;;;20.40;99.90;;;;;;4988040;28;20658;-90
2021/06/06 02:39:25;;;;;;;51.80;47.00;;;20.40;99.90;;;;;;4980515;28;21203;-89
2021/06/06 02:42:11;;;;;;;51.37;46.50;;;20.30;99.90;;;;;;4977100;28;20665;-90
2021/06/06 02:44:51;;;;;;;56.10;50.70;;;20.30;99.90;;;;;;4983333;28;20634;-89
2021/06/06 02:47:22;;;;;;;53.47;48.17;;;20.30;99.90;;;;;;4997463;28;20730;-89
2021/06/06 02:49:49;;;;;;;52.57;47.60;;;20.30;99.90;;;;;;4988280;28;20644;-90
2021/06/06 02:52:38;;;;;;;53.10;47.87;;;20.30;99.90;;;;;;4987710;28;20693;-88
2021/06/06 02:55:13;;;;;;;51.93;46.97;;;20.20;99.90;;;;;;4983487;28;20642;-89
2021/06/06 02:57:47;;;;;;;54.00;48.80;;;20.20;99.90;;;;;;4992317;28;20636;-91
2021/06/06 03:00:28;;;;;;;51.10;46.07;;;20.20;99.90;;;;;;4983677;28;20625;-91
2021/06/06 03:03:00;;;;;;;52.87;47.80;;;20.30;99.90;;;;;;4983786;28;21250;-91
2021/06/06 03:05:30;;;;;;;57.00;51.40;;;20.20;99.90;;;;;;4987235;28;20700;-91
2021/06/06 03:07:59;;;;;;;56.83;51.27;;;20.20;99.90;;;;;;4986303;28;20618;-91
2021/06/06 03:10:28;;;;;;;58.93;53.23;;;20.10;99.90;;;;;;4998862;28;20675;-91
2021/06/06 03:12:56;;;;;;;57.93;52.23;;;20.00;99.90;;;;;;4988466;28;20633;-90
2021/06/06 03:15:34;;;;;;;58.00;52.40;;;20.00;99.90;;;;;;4985215;28;21180;-91
2021/06/06 03:18:03;;;;;;;53.23;48.03;;;20.10;99.90;;;;;;4981954;28;20788;-91
2021/06/06 03:20:33;;;;;;;52.80;47.70;;;20.10;99.90;;;;;;4982620;28;20641;-90
2021/06/06 03:23:01;;;;;;;57.60;51.90;;;20.00;99.90;;;;;;4980930;28;20765;-91
2021/06/06 03:25:45;;;;;;;53.10;47.90;;;19.90;99.90;;;;;;4982799;28;20631;-90
2021/06/06 03:28:13;;;;;;;61.23;55.10;;;19.90;99.90;;;;;;4983664;28;20717;-89
2021/06/06 03:30:41;;;;;;;54.27;48.80;;;19.90;99.90;;;;;;4982534;28;20660;-91
2021/06/06 03:33:14;;;;;;;56.37;50.77;;;19.90;99.90;;;;;;4980535;28;20618;-90
2021/06/06 03:35:40;;;;;;;52.83;47.77;;;19.90;99.90;;;;;;4984457;28;20665;-90
2021/06/06 03:38:06;;;;;;;56.83;51.33;;;19.90;99.90;;;;;;4983017;28;20722;-89
2021/06/06 03:40:37;;;;;;;55.07;49.67;;;19.90;99.90;;;;;;4984329;28;20694;-90
2021/06/06 03:43:05;;;;;;;58.53;52.63;;;19.80;99.90;;;;;;4989554;28;20637;-91
2021/06/06 03:45:31;;;;;;;55.53;50.20;;;19.80;99.90;;;;;;4999123;28;20966;-90
2021/06/06 03:47:58;;;;;;;57.23;51.30;;;19.70;99.90;;;;;;4985293;28;21222;-90
2021/06/06 03:50:26;;;;;;;56.37;50.73;;;19.70;99.90;;;;;;4984773;28;20641;-89
2021/06/06 03:52:52;;;;;;;53.70;48.50;;;19.80;99.90;;;;;;4985541;28;20752;-91
2021/06/06 03:55:19;;;;;;;55.13;49.80;;;19.80;99.90;;;;;;4983949;28;20713;-90
2021/06/06 03:57:45;;;;;;;52.40;47.23;;;19.70;99.90;;;;;;4984433;28;20877;-91
2021/06/06 04:00:15;;;;;;;54.57;49.07;;;19.70;99.90;;;;;;4982658;28;20941;-91
2021/06/06 04:02:44;;;;;;;52.50;47.40;;;19.60;99.90;;;;;;4990506;28;20661;-91
2021/06/06 04:05:11;;;;;;;56.70;50.87;;;19.60;99.90;;;;;;4990593;28;20637;-90
2021/06/06 04:07:37;;;;;;;52.53;47.50;;;19.60;99.90;;;;;;4983321;28;20695;-90
2021/06/06 04:10:04;;;;;;;53.53;48.27;;;19.70;99.90;;;;;;4984330;28;20664;-92
2021/06/06 04:12:30;;;;;;;57.27;51.77;;;19.60;99.90;;;;;;4980492;28;20280;-91
2021/06/06 04:14:56;;;;;;;57.43;51.80;;;19.50;99.90;;;;;;4985659;28;20737;-91
2021/06/06 04:17:21;;;;;;;56.13;50.73;;;19.50;99.90;;;;;;4980572;28;20238;-90
2021/06/06 04:19:47;;;;;;;54.03;48.70;;;19.40;99.90;;;;;;4979991;28;20195;-90
2021/06/06 04:22:13;;;;;;;55.87;50.40;;;19.40;99.90;;;;;;4989402;28;20202;-90
2021/06/06 04:24:38;;;;;;;54.53;49.27;;;19.40;99.90;;;;;;4981793;28;20288;-89
2021/06/06 04:27:04;;;;;;;54.83;49.23;;;19.40;99.90;;;;;;4980015;28;20199;-90
2021/06/06 04:29:30;;;;;;;52.90;47.80;;;19.40;99.90;;;;;;4982289;28;20197;-90
2021/06/06 04:31:56;;;;;;;53.47;48.20;;;19.30;99.90;;;;;;4982787;28;20656;-90
2021/06/06 04:34:21;;;;;;;56.40;50.80;;;19.40;99.90;;;;;;4980999;28;20245;-92
2021/06/06 04:36:48;;;;;;;51.57;46.43;;;19.40;99.90;;;;;;4984341;28;20200;-92
2021/06/06 04:39:13;;;;;;;51.93;46.90;;;19.30;99.90;;;;;;4983831;28;20545;-91
2021/06/06 04:41:39;;;;;;;50.30;45.20;;;19.20;99.90;;;;;;4983121;28;20665;-90
2021/06/06 04:44:07;;;;;;;52.47;47.23;;;19.20;99.90;;;;;;4982704;28;20222;-90
2021/06/06 04:46:35;;;;;;;54.37;49.00;;;19.20;99.90;;;;;;4985220;28;20217;-90
2021/06/06 04:49:01;;;;;;;53.87;48.37;;;19.10;99.90;;;;;;4982043;28;20629;-91
2021/06/06 04:51:26;;;;;;;54.83;49.40;;;19.30;99.90;;;;;;4983293;28;20665;-90
2021/06/06 04:53:53;;;;;;;51.17;46.10;;;19.20;99.90;;;;;;4983288;28;20230;-91
2021/06/06 04:56:22;;;;;;;52.70;47.40;;;19.20;99.90;;;;;;4998115;28;20194;-90
2021/06/06 04:58:47;;;;;;;51.83;46.53;;;19.20;99.90;;;;;;4981567;28;20621;-91
2021/06/06 05:01:13;;;;;;;54.00;48.50;;;19.20;99.90;;;;;;4966698;28;21296;-91
2021/06/06 05:03:39;;;;;;;55.67;50.10;;;19.10;99.90;;;;;;4980868;28;20683;-90
2021/06/06 05:06:05;;;;;;;53.10;47.60;;;19.20;99.90;;;;;;4983675;28;20202;-89
2021/06/06 05:08:32;;;;;;;52.60;47.23;;;19.10;99.90;;;;;;4980083;28;20623;-90
2021/06/06 05:10:58;;;;;;;53.20;47.70;;;19.10;99.90;;;;;;4987759;28;20331;-90
2021/06/06 05:13:25;;;;;;;53.77;48.30;;;19.10;99.90;;;;;;4986353;28;20642;-91
2021/06/06 05:15:53;;;;;;;53.77;48.27;;;19.00;99.90;;;;;;4985448;28;20614;-91
2021/06/06 05:18:19;;;;;;;49.03;43.93;;;19.00;99.90;;;;;;4983287;28;21180;-92
2021/06/06 05:20:48;;;;;;;51.57;46.43;;;19.00;99.90;;;;;;4999824;28;20653;-91
2021/06/06 05:23:18;;;;;;;53.13;47.90;;;19.00;99.90;;;;;;4984458;28;20693;-90
2021/06/06 05:25:44;;;;;;;52.27;47.07;;;19.00;99.90;;;;;;4981164;28;20618;-89
2021/06/06 05:28:13;;;;;;;50.27;45.07;;;19.00;99.90;;;;;;4985275;28;20676;-91
2021/06/06 05:30:41;;;;;;;49.97;44.90;;;18.90;99.90;;;;;;4983227;28;21085;-90
2021/06/06 05:33:07;;;;;;;51.23;45.97;;;19.00;99.90;;;;;;4978994;28;20609;-91
2021/06/06 05:35:34;;;;;;;53.73;47.90;;;18.90;99.90;;;;;;4990156;28;20716;-90
2021/06/06 05:38:00;;;;;;;48.43;43.60;;;18.90;99.90;;;;;;4979660;28;20621;-91
2021/06/06 05:40:28;;;;;;;54.33;48.67;;;18.90;99.90;;;;;;4985320;28;20747;-90
2021/06/06 05:42:54;;;;;;;50.17;45.07;;;18.90;99.90;;;;;;4983167;28;20672;-90
2021/06/06 05:45:22;;;;;;;51.23;46.13;;;18.90;99.90;;;;;;4982969;28;20618;-91
2021/06/06 05:47:48;;;;;;;52.00;46.50;;;19.00;99.90;;;;;;4980285;28;20191;-91
2021/06/06 05:50:18;;;;;;;46.77;41.97;;;18.90;99.90;;;;;;4982307;28;20625;-90
2021/06/06 05:52:43;;;;;;;49.83;44.77;;;18.90;99.90;;;;;;4987679;28;20653;-90
2021/06/06 05:55:10;;;;;;;47.50;42.73;;;18.90;99.90;;;;;;4978968;28;20637;-89
2021/06/06 05:57:38;;;;;;;49.40;44.37;;;18.90;99.90;;;;;;4981989;28;20201;-89
2021/06/06 06:00:09;;;;;;;49.67;44.70;;;18.90;99.90;;;;;;4986996;28;20675;-90
2021/06/06 06:02:34;;;;;;;50.00;45.07;;;18.90;99.90;;;;;;4979176;28;20657;-90
2021/06/06 06:05:00;;;;;;;49.50;44.50;;;18.90;99.90;;;;;;4978562;28;20636;-89
2021/06/06 06:07:26;;;;;;;48.30;43.33;;;19.00;99.90;;;;;;4979313;28;20221;-89
2021/06/06 06:09:52;;;;;;;48.17;43.17;;;19.00;99.90;;;;;;4983693;28;20187;-90
2021/06/06 06:12:17;;;;;;;44.97;40.50;;;18.90;99.90;;;;;;4984077;28;20718;-88
2021/06/06 06:14:45;;;;;;;42.50;38.10;;;19.00;99.90;;;;;;4979011;28;20845;-90
2021/06/06 06:17:11;;;;;;;42.13;38.00;;;19.00;99.90;;;;;;4982676;28;20194;-90
2021/06/06 06:19:36;;;;;;;40.10;36.40;;;19.00;99.90;;;;;;4982305;28;20656;-90
2021/06/06 06:22:02;;;;;;;38.80;35.00;;;19.10;99.90;;;;;;4981218;28;20303;-89
2021/06/06 06:24:28;;;;;;;37.73;34.13;;;19.00;99.90;;;;;;4982728;28;20213;-89
2021/06/06 06:26:55;;;;;;;36.27;32.77;;;19.00;99.90;;;;;;4986400;28;20612;-89
2021/06/06 06:29:22;;;;;;;36.63;33.13;;;19.00;99.90;;;;;;4983637;28;20658;-90
2021/06/06 06:31:48;;;;;;;37.30;33.80;;;19.00;99.90;;;;;;4970592;28;20669;-88
2021/06/06 06:34:13;;;;;;;37.27;33.70;;;19.00;99.90;;;;;;4981373;28;20661;-87
2021/06/06 06:36:39;;;;;;;34.50;31.30;;;19.00;99.90;;;;;;4984344;28;20206;-88
2021/06/06 06:39:06;;;;;;;32.37;29.17;;;19.00;99.90;;;;;;4990220;28;20612;-87
2021/06/06 06:41:32;;;;;;;31.40;28.43;;;19.00;99.90;;;;;;4987328;28;20598;-88
2021/06/06 06:43:59;;;;;;;31.97;29.07;;;18.90;99.90;;;;;;4987353;28;20637;-89
2021/06/06 06:46:25;;;;;;;31.87;29.07;;;19.00;99.90;;;;;;4990155;28;20618;-90
2021/06/06 06:48:52;;;;;;;30.03;27.23;;;19.00;99.90;;;;;;4992621;28;21272;-91
2021/06/06 06:51:17;;;;;;;32.17;29.10;;;19.00;99.90;;;;;;4988933;28;20649;-91
2021/06/06 06:53:54;;;;;;;33.07;29.93;;;19.10;99.90;;;;;;4985435;28;20642;-89
2021/06/06 06:56:22;;;;;;;32.20;29.30;;;19.00;99.90;;;;;;4992436;28;20197;-90
2021/06/06 06:58:49;;;;;;;29.83;27.03;;;19.00;99.90;;;;;;4984451;28;20646;-91
2021/06/06 07:01:15;;;;;;;30.80;27.80;;;19.10;99.90;;;;;;4986155;28;20637;-90
2021/06/06 07:03:40;;;;;;;34.20;31.00;;;19.10;99.90;;;;;;4983014;28;20640;-91
2021/06/06 07:06:07;;;;;;;34.67;31.27;;;19.00;99.90;;;;;;4981900;28;20199;-90
2021/06/06 07:08:37;;;;;;;35.20;31.90;;;19.00;99.90;;;;;;4985227;28;20226;-90
2021/06/06 07:11:04;;;;;;;35.77;32.27;;;19.00;99.90;;;;;;4990076;28;20673;-90
2021/06/06 07:13:30;;;;;;;31.87;28.87;;;19.00;99.90;;;;;;5003411;28;20671;-91
2021/06/06 07:15:58;;;;;;;32.90;29.70;;;19.00;99.90;;;;;;4990385;28;20609;-94
2021/06/06 07:18:25;;;;;;;36.00;32.50;;;19.00;99.90;;;;;;5005967;28;20627;-91
2021/06/06 07:21:03;;;;;;;33.20;30.17;;;19.00;99.90;;;;;;5009742;28;20661;-93
2021/06/06 07:23:33;;;;;;;32.60;29.50;;;19.10;99.90;;;;;;5001948;28;20654;-91
2021/06/06 07:26:02;;;;;;;35.63;32.07;;;19.10;99.90;;;;;;4988325;28;20636;-91
2021/06/06 07:28:29;;;;;;;37.37;33.67;;;19.20;99.90;;;;;;4988897;28;21074;-89
2021/06/06 07:30:59;;;;;;;37.80;34.10;;;19.10;99.90;;;;;;4989822;28;20749;-89
2021/06/06 07:33:33;;;;;;;37.13;33.47;;;19.10;99.90;;;;;;5001795;28;20645;-90
2021/06/06 07:36:13;;;;;;;34.83;31.33;;;19.10;99.90;;;;;;4992396;28;20612;-89
2021/06/06 07:38:38;;;;;;;34.83;31.37;;;19.10;99.90;;;;;;5013406;28;20668;-92
2021/06/06 07:41:07;;;;;;;35.70;32.20;;;19.10;99.90;;;;;;5004030;28;20665;-90
2021/06/06 07:43:33;;;;;;;37.17;33.43;;;19.10;99.90;;;;;;5009318;28;20249;-91
2021/06/06 07:46:01;;;;;;;38.13;34.40;;;19.20;99.90;;;;;;5008647;28;20625;-92
2021/06/06 07:48:26;;;;;;;35.37;31.77;;;19.20;99.90;;;;;;4999176;28;20640;-91
2021/06/06 07:50:53;;;;;;;35.77;32.47;;;19.20;99.90;;;;;;4997235;28;21020;-90
2021/06/06 07:53:21;;;;;;;38.43;34.53;;;19.10;99.90;;;;;;4986476;28;20218;-91
2021/06/06 07:55:52;;;;;;;37.40;33.60;;;19.10;99.90;;;;;;4977419;28;20609;-90
2021/06/06 07:58:29;;;;;;;38.17;34.50;;;19.20;99.90;;;;;;4988654;28;20629;-90
2021/06/06 08:00:54;;;;;;;40.30;36.30;;;19.20;99.90;;;;;;4991649;28;20664;-90
2021/06/06 08:03:20;;;;;;;38.40;34.70;;;19.20;99.90;;;;;;4991376;28;20671;-91
2021/06/06 08:05:48;;;;;;;37.10;33.40;;;19.20;99.90;;;;;;4985611;28;20196;-91
2021/06/06 08:08:14;;;;;;;39.30;35.57;;;19.20;99.90;;;;;;4991220;28;20653;-91
2021/06/06 08:10:45;;;;;;;38.40;34.50;;;19.40;99.90;;;;;;4992462;28;20690;-90
2021/06/06 08:13:10;;;;;;;39.63;35.63;;;19.30;99.90;;;;;;4988960;28;20704;-89
2021/06/06 08:15:37;;;;;;;35.80;32.37;;;19.40;99.90;;;;;;5006878;28;20650;-90
2021/06/06 08:18:07;;;;;;;36.60;33.07;;;19.40;99.90;;;;;;4989624;28;20233;-90
2021/06/06 08:20:39;;;;;;;36.07;32.60;;;19.30;99.90;;;;;;4991686;28;20649;-90
2021/06/06 08:23:07;;;;;;;39.17;35.47;;;19.30;99.90;;;;;;4986899;28;20644;-89
2021/06/06 08:25:33;;;;;;;38.97;35.17;;;19.30;99.90;;;;;;4990567;28;21271;-90
2021/06/06 08:28:01;;;;;;;34.83;31.43;;;19.40;99.90;;;;;;4995679;28;20616;-90
2021/06/06 08:30:38;;;;;;;35.73;32.23;;;19.40;99.90;;;;;;4990872;28;20261;-89
2021/06/06 08:33:11;;;;;;;37.20;33.70;;;19.50;99.90;;;;;;4989307;28;21166;-91
2021/06/06 08:35:36;;;;;;;33.43;30.20;;;19.50;99.90;;;;;;4997225;28;21227;-90
2021/06/06 08:38:03;;;;;;;36.23;32.70;;;19.60;99.90;;;;;;4990435;28;20628;-90
2021/06/06 08:40:47;;;;;;;34.87;31.47;;;19.60;99.90;;;;;;4990898;28;20222;-92
2021/06/06 08:43:14;;;;;;;34.20;31.00;;;19.60;99.90;;;;;;4992880;28;20640;-90
2021/06/06 08:45:54;;;;;;;33.07;30.00;;;19.60;99.90;;;;;;4986086;28;20617;-92
2021/06/06 08:48:22;;;;;;;35.20;31.80;;;19.70;99.90;;;;;;4994916;28;20999;-91
2021/06/06 08:50:51;;;;;;;34.37;30.97;;;19.70;99.90;;;;;;4984682;28;20676;-90
2021/06/06 08:53:25;;;;;;;34.80;31.50;;;19.70;99.90;;;;;;4983598;28;20626;-90
2021/06/06 08:56:19;;;;;;;34.27;30.87;;;19.70;99.90;;;;;;4989629;28;20632;-90
2021/06/06 08:59:41;;;;;;;35.23;31.90;;;19.80;99.90;;;;;;4996624;28;20663;-90
2021/06/06 09:02:17;;;;;;;35.13;31.73;;;19.80;99.90;;;;;;4975864;28;20670;-90
2021/06/06 09:04:43;;;;;;;37.00;33.40;;;19.80;99.90;;;;;;4987533;28;20625;-90
2021/06/06 09:07:33;;;;;;;34.50;31.10;;;19.80;99.90;;;;;;4987838;28;20606;-91
2021/06/06 09:10:06;;;;;;;39.70;35.90;;;19.80;99.90;;;;;;4988228;28;20722;-92
2021/06/06 09:12:31;;;;;;;36.80;33.20;;;19.90;99.90;;;;;;4994361;28;20625;-90
2021/06/06 09:14:57;;;;;;;36.77;33.17;;;19.90;99.90;;;;;;4988470;28;21241;-91
2021/06/06 09:17:56;;;;;;;36.60;33.10;;;20.00;99.90;;;;;;4989658;28;20570;-89
2021/06/06 09:20:28;;;;;;;35.30;32.00;;;20.10;99.90;;;;;;4978505;28;20625;-89
2021/06/06 09:23:23;;;;;;;34.50;31.20;;;20.10;99.90;;;;;;5003290;28;20716;-91
2021/06/06 09:26:07;;;;;;;35.20;31.90;;;20.30;99.90;;;;;;4991518;28;20606;-90
2021/06/06 09:28:35;;;;;;;35.50;32.33;;;20.30;99.90;;;;;;4989182;28;21224;-90
2021/06/06 09:31:06;;;;;;;35.17;31.73;;;20.20;99.90;;;;;;4989160;28;20641;-90
2021/06/06 09:33:54;;;;;;;32.90;29.80;;;20.30;99.90;;;;;;4989084;28;20650;-91
2021/06/06 09:36:27;;;;;;;32.30;29.27;;;20.30;99.90;;;;;;4984128;28;21318;-90
2021/06/06 09:39:03;;;;;;;33.13;29.93;;;20.30;99.90;;;;;;4984748;28;20610;-91
2021/06/06 09:41:48;;;;;;;34.43;31.13;;;20.30;99.90;;;;;;4987347;28;20673;-90
2021/06/06 09:44:14;;;;;;;33.90;30.67;;;20.30;99.90;;;;;;4988438;28;20645;-90
2021/06/06 09:46:53;;;;;;;33.77;30.47;;;20.40;99.90;;;;;;4991590;28;20621;-92
2021/06/06 09:49:41;;;;;;;31.03;28.00;;;20.30;99.90;;;;;;4990116;28;20554;-89
2021/06/06 09:52:13;;;;;;;34.73;31.43;;;20.30;99.90;;;;;;4992955;28;20638;-90
2021/06/06 09:54:46;;;;;;;35.17;31.73;;;20.30;99.90;;;;;;4993912;28;21214;-89
2021/06/06 09:57:33;;;;;;;34.27;30.97;;;20.20;99.90;;;;;;4996703;28;20684;-90
2021/06/06 10:00:11;;;;;;;32.67;29.53;;;20.30;99.90;;;;;;5004101;28;20722;-91
2021/06/06 10:02:40;;;;;;;33.53;30.37;;;20.30;99.90;;;;;;4991386;28;20645;-91
2021/06/06 10:05:22;;;;;;;33.90;30.50;;;20.20;99.90;;;;;;4985209;28;20712;-90
2021/06/06 10:08:06;;;;;;;32.77;29.57;;;20.30;99.90;;;;;;4988216;28;20620;-90
2021/06/06 10:10:39;;;;;;;33.63;30.50;;;20.30;99.90;;;;;;4982337;28;20630;-90
2021/06/06 10:13:10;;;;;;;32.33;29.07;;;20.30;99.90;;;;;;4986786;28;20625;-91
2021/06/06 10:16:16;;;;;;;30.60;27.70;;;20.30;99.90;;;;;;4990293;28;20694;-89
2021/06/06 10:18:55;;;;;;;32.47;29.30;;;20.40;99.90;;;;;;5007958;28;20616;-89
2021/06/06 10:21:25;;;;;;;29.83;27.00;;;20.50;99.90;;;;;;5009465;28;20641;-89
2021/06/06 10:23:58;;;;;;;32.50;29.40;;;20.50;99.90;;;;;;4994106;28;20637;-89
2021/06/06 10:26:38;;;;;;;31.23;28.30;;;20.50;99.90;;;;;;4989580;28;20998;-89
2021/06/06 10:29:48;;;;;;;32.53;29.43;;;20.60;99.90;;;;;;4985036;28;20602;-89
2021/06/06 10:32:24;;;;;;;32.30;29.17;;;20.60;99.90;;;;;;5003189;28;20656;-89
2021/06/06 10:35:12;;;;;;;29.57;26.77;;;20.70;99.90;;;;;;5003707;28;20672;-89
2021/06/06 10:37:42;;;;;;;27.87;25.17;;;20.70;99.90;;;;;;4994957;28;20656;-89
2021/06/06 10:40:20;;;;;;;33.50;30.40;;;20.70;99.90;;;;;;4992862;28;20644;-89
2021/06/06 10:42:58;;;;;;;33.37;30.17;;;20.70;99.90;;;;;;4975479;28;20657;-89
2021/06/06 10:45:36;;;;;;;31.60;28.63;;;20.70;99.90;;;;;;4984624;28;20671;-90
2021/06/06 10:48:08;;;;;;;33.87;30.70;;;20.80;99.90;;;;;;4984468;28;20621;-90
2021/06/06 10:50:45;;;;;;;32.10;29.10;;;20.70;99.90;;;;;;4991649;28;20710;-90
2021/06/06 10:53:22;;;;;;;33.33;30.17;;;20.70;99.90;;;;;;4987405;28;20625;-89
2021/06/06 10:56:11;;;;;;;33.97;30.67;;;20.70;99.90;;;;;;4984331;28;20705;-88
2021/06/06 10:58:47;;;;;;;35.60;32.17;;;20.90;99.90;;;;;;4988398;28;20665;-89
2021/06/06 11:01:19;;;;;;;32.13;29.10;;;20.80;99.90;;;;;;4991645;28;20655;-89
2021/06/06 11:03:48;;;;;;;32.57;29.17;;;20.80;99.90;;;;;;4994325;28;20645;-89
2021/06/06 11:06:30;;;;;;;33.00;29.60;;;20.80;99.90;;;;;;4993066;28;20617;-90
2021/06/06 11:08:57;;;;;;;33.80;30.60;;;20.70;99.90;;;;;;4987741;28;21185;-90
2021/06/06 11:11:30;;;;;;;31.80;28.80;;;20.70;99.90;;;;;;4990229;28;20641;-89
2021/06/06 11:14:09;;;;;;;33.93;30.53;;;20.80;99.90;;;;;;4971400;28;20675;-89
2021/06/06 11:16:40;;;;;;;32.83;29.70;;;20.80;99.90;;;;;;4996928;28;20628;-90
2021/06/06 11:19:37;;;;;;;31.27;28.27;;;20.80;99.90;;;;;;4993124;28;21061;-88
2021/06/06 11:22:04;;;;;;;32.63;29.47;;;20.80;99.90;;;;;;4996943;28;20661;-90
2021/06/06 11:24:39;;;;;;;30.60;27.60;;;20.80;99.90;;;;;;5008935;28;20613;-90
2021/06/06 11:27:11;;;;;;;32.40;29.40;;;20.90;99.90;;;;;;4999075;28;20680;-90
2021/06/06 11:30:04;;;;;;;31.93;28.73;;;20.90;99.90;;;;;;4994928;28;20637;-89
2021/06/06 11:33:09;;;;;;;35.43;31.77;;;20.90;99.90;;;;;;4995685;28;20620;-89
2021/06/06 11:35:34;;;;;;;32.70;29.63;;;20.90;99.90;;;;;;4960952;28;20653;-90
2021/06/06 11:38:27;;;;;;;32.43;29.23;;;20.90;99.90;;;;;;4994631;28;20609;-89
2021/06/06 11:41:10;;;;;;;29.50;26.90;;;20.90;99.90;;;;;;4996497;28;20707;-88
2021/06/06 11:43:42;;;;;;;29.70;26.80;;;20.90;99.90;;;;;;4998665;28;21227;-89
2021/06/06 11:46:23;;;;;;;30.20;27.50;;;20.80;99.90;;;;;;4979917;28;20626;-90
2021/06/06 11:48:59;;;;;;;34.07;30.80;;;20.90;99.90;;;;;;4979137;28;20617;-89
2021/06/06 11:51:30;;;;;;;28.63;26.13;;;20.90;99.90;;;;;;4973171;28;20693;-89
2021/06/06 11:53:58;;;;;;;30.40;27.60;;;21.00;99.90;;;;;;4987846;28;20626;-89
2021/06/06 11:56:51;;;;;;;29.57;26.87;;;20.90;99.90;;;;;;4985287;28;20693;-89
2021/06/06 11:59:22;;;;;;;31.33;28.57;;;20.90;99.90;;;;;;4994416;28;21202;-89
2021/06/06 12:02:07;;;;;;;31.93;28.90;;;20.90;99.90;;;;;;4988672;28;21245;-88
2021/06/06 12:04:36;;;;;;;33.77;30.57;;;20.90;99.90;;;;;;5000399;28;20671;-88
2021/06/06 12:07:25;;;;;;;31.90;29.00;;;20.90;99.90;;;;;;5007057;28;20751;-88
2021/06/06 12:09:52;;;;;;;31.17;28.03;;;20.90;99.90;;;;;;5002882;28;20618;-89
2021/06/06 12:12:36;;;;;;;31.43;28.50;;;20.90;99.90;;;;;;5009602;28;21075;-89
2021/06/06 12:15:22;;;;;;;32.97;29.90;;;20.90;99.90;;;;;;4984791;28;20632;-89
2021/06/06 12:18:17;;;;;;;31.63;28.70;;;20.90;99.90;;;;;;4992789;28;20636;-88
2021/06/06 12:20:55;;;;;;;31.33;28.40;;;20.80;99.90;;;;;;4980665;28;20649;-89
2021/06/06 12:23:36;;;;;;;34.87;31.53;;;20.80;99.90;;;;;;4979813;28;20641;-90
2021/06/06 12:26:10;;;;;;;32.43;29.40;;;20.70;99.90;;;;;;4956913;28;20633;-89
2021/06/06 12:28:40;;;;;;;31.73;28.93;;;20.80;99.90;;;;;;4972566;28;20639;-89
2021/06/06 12:31:15;;;;;;;32.37;29.37;;;20.80;99.90;;;;;;4965829;28;20653;-89
2021/06/06 12:33:43;;;;;;;32.50;29.60;;;20.90;99.90;;;;;;4986925;28;20660;-90
2021/06/06 12:36:18;;;;;;;31.10;28.00;;;20.80;99.90;;;;;;4978081;28;20674;-90
2021/06/06 12:38:44;;;;;;;32.77;29.77;;;20.70;99.90;;;;;;4993997;28;20610;-91
2021/06/06 12:41:12;;;;;;;32.97;29.70;;;20.80;99.90;;;;;;4985822;28;21114;-90
2021/06/06 12:43:43;;;;;;;31.93;28.80;;;20.80;99.90;;;;;;4979654;28;20653;-89
2021/06/06 12:46:09;;;;;;;32.37;29.37;;;20.80;99.90;;;;;;4953047;28;20710;-90
2021/06/06 12:49:01;;;;;;;31.03;28.00;;;20.80;99.90;;;;;;4956199;28;20626;-88
2021/06/06 12:51:38;;;;;;;32.03;29.17;;;20.90;99.90;;;;;;4968527;28;20653;-90
2021/06/06 12:54:30;;;;;;;33.63;30.70;;;20.90;99.90;;;;;;4960698;28;20622;-88
2021/06/06 12:57:14;;;;;;;33.57;30.57;;;20.90;99.90;;;;;;4951604;28;21444;-89